Time;durP1;ratioP1;P1;durP2;ratioP2;P2;SDS_P1;SDS_P2;PMS_P1;PMS_P2;Temp;Humidity;BMP_temperature;BMP_pressure;BME280_temperature;BME280_humidity;BME280_pressure;Samples;Min_cycle;Max_cycle;Signal;HPM_P1;HPM_P2
2022/02/16 00:00:47;;;;;;;;;0.00;0.00;;;;;10.87;96.63;100200.94;6315620;22;45353;-87
2022/02/16 00:03:13;;;;;;;;;1.00;1.00;;;;;10.54;97.79;100144.94;6316907;22;45678;-87
2022/02/16 00:05:38;;;;;;;;;0.00;0.00;;;;;10.73;97.54;100183.13;6314387;22;45624;-87
2022/02/16 00:08:04;;;;;;;;;3.00;1.00;;;;;10.80;97.64;100189.34;6289431;22;45172;-87
2022/02/16 00:10:31;;;;;;;;;2.00;0.67;;;;;10.45;97.61;100130.72;6315393;22;45148;-87
2022/02/16 00:12:58;;;;;;;;;0.33;0.33;;;;;10.63;97.30;100151.19;6289188;22;46921;-87
2022/02/16 00:15:25;;;;;;;;;1.00;1.00;;;;;10.78;97.19;100169.84;6286903;22;44798;-87
2022/02/16 00:17:52;;;;;;;;;1.00;1.00;;;;;10.71;97.55;100152.09;6316944;22;45305;-87
2022/02/16 00:20:18;;;;;;;;;0.00;0.00;;;;;10.78;97.47;100170.72;6289290;22;45363;-87
2022/02/16 00:22:44;;;;;;;;;1.00;1.00;;;;;10.51;97.63;100117.44;6289603;22;46652;-87
2022/02/16 00:25:11;;;;;;;;;0.00;0.00;;;;;10.52;97.45;100133.41;6314094;22;45641;-87
2022/02/16 00:27:38;;;;;;;;;0.00;0.00;;;;;10.77;97.93;100174.28;6286164;22;45441;-87
2022/02/16 00:30:05;;;;;;;;;0.00;0.00;;;;;10.69;97.78;100145.88;6313597;22;45463;-87
2022/02/16 00:32:30;;;;;;;;;1.00;1.00;;;;;10.53;98.02;100131.63;6313931;22;46607;-87
2022/02/16 00:34:56;;;;;;;;;0.00;0.00;;;;;10.68;97.97;100152.06;6286084;22;45510;-87
2022/02/16 00:40:43;;;;;;;;;0.00;0.00;;;;;10.71;97.41;100136.13;6314484;22;45354;-87
2022/02/16 00:43:09;;;;;;;;;1.00;1.00;;;;;10.79;97.08;100139.72;6289969;22;47217;-87
2022/02/16 00:45:34;;;;;;;;;0.00;0.00;;;;;10.80;97.39;100141.47;6318548;22;45744;-89
2022/02/16 00:48:00;;;;;;;;;0.00;0.00;;;;;10.79;97.51;100131.72;6290042;22;45582;-86
2022/02/16 00:50:27;;;;;;;;;0.00;0.00;;;;;10.80;97.88;100142.34;6291323;22;44830;-86
2022/02/16 00:52:52;;;;;;;;;0.00;0.00;;;;;10.75;97.75;100127.28;6290911;22;45519;-86
2022/02/16 00:55:18;;;;;;;;;0.00;0.00;;;;;10.79;98.67;100131.72;6289351;22;45386;-86
2022/02/16 00:57:43;;;;;;;;;0.00;0.00;;;;;10.70;98.75;100113.94;6289502;22;44711;-86
2022/02/16 01:00:10;;;;;;;;;0.00;0.00;;;;;10.73;99.33;100113.97;6289630;22;45588;-86
2022/02/16 01:02:35;;;;;;;;;0.00;0.00;;;;;10.59;100.00;100087.31;6315093;22;47169;-86
2022/02/16 01:05:01;;;;;;;;;0.00;0.00;;;;;10.59;100.00;100097.97;6288910;22;45317;-86
2022/02/16 01:07:27;;;;;;;;;0.00;0.00;;;;;10.56;100.00;100095.31;6316187;22;45299;-87
2022/02/16 01:09:52;;;;;;;;;1.00;0.00;;;;;10.56;100.00;100086.41;6289533;22;45602;-87
2022/02/16 01:12:18;;;;;;;;;0.00;0.00;;;;;10.47;100.00;100074.00;6290693;22;46716;-87
2022/02/16 01:14:44;;;;;;;;;1.00;1.00;;;;;10.56;100.00;100074.03;6290600;22;45288;-87
2022/02/16 01:17:09;;;;;;;;;0.00;0.00;;;;;10.51;100.00;100074.91;6279069;22;45696;-88
2022/02/16 01:19:35;;;;;;;;;0.67;0.67;;;;;10.45;100.00;100058.94;6280778;22;45326;-87
2022/02/16 01:22:02;;;;;;;;;0.00;0.00;;;;;10.50;100.00;100070.44;6256417;22;46197;-87
2022/02/16 01:24:29;;;;;;;;;2.00;2.00;;;;;10.59;100.00;100079.34;6254245;22;45687;-87
2022/02/16 01:26:55;;;;;;;;;0.00;0.00;;;;;10.60;100.00;100070.50;6253281;22;45357;-87
2022/02/16 01:29:23;;;;;;;;;0.00;0.00;;;;;10.57;100.00;100057.19;6245723;22;45502;-87
2022/02/16 01:31:50;;;;;;;;;0.00;0.00;;;;;10.41;99.87;100026.13;6252763;22;47218;-87
2022/02/16 01:34:16;;;;;;;;;0.00;0.00;;;;;10.43;99.53;100023.47;6227461;22;45446;-87
2022/02/16 01:36:41;;;;;;;;;0.00;0.00;;;;;10.73;99.50;100071.41;6253173;22;45459;-87
2022/02/16 01:39:07;;;;;;;;;0.00;0.00;;;;;10.77;99.62;100067.00;6279642;22;45375;-87
2022/02/16 01:41:34;;;;;;;;;0.00;0.00;;;;;10.71;99.31;100045.72;6256243;22;46026;-87
2022/02/16 01:44:00;;;;;;;;;0.00;0.00;;;;;10.63;99.73;100031.50;6254139;22;45243;-87
2022/02/16 01:46:26;;;;;;;;;0.00;0.00;;;;;10.63;99.27;100015.56;6253873;22;45535;-87
2022/02/16 01:48:51;;;;;;;;;0.00;0.00;;;;;10.51;99.76;100011.97;6252792;22;45428;-87
2022/02/16 01:51:17;;;;;;;;;0.00;0.00;;;;;10.61;99.76;100034.16;6252801;22;46935;-87
2022/02/16 01:53:42;;;;;;;;;0.00;0.00;;;;;10.45;99.79;99985.38;6253052;22;45068;-87
2022/02/16 01:56:09;;;;;;;;;0.00;0.00;;;;;10.49;100.00;100003.09;6279398;22;45430;-87
2022/02/16 01:58:36;;;;;;;;;0.00;0.00;;;;;10.77;99.96;100029.75;6255066;22;45358;-86
2022/02/16 02:01:04;;;;;;;;;0.00;0.00;;;;;10.69;100.00;100008.47;6254441;22;47842;-86
2022/02/16 02:03:31;;;;;;;;;0.00;0.00;;;;;10.49;100.00;99965.88;6254302;22;45379;-86
2022/02/16 02:05:56;;;;;;;;;1.00;0.33;;;;;10.57;100.00;99977.41;6252653;22;45663;-86
2022/02/16 02:08:24;;;;;;;;;0.00;0.00;;;;;10.79;100.00;100004.06;6252959;22;45259;-86
2022/02/16 02:10:52;;;;;;;;;0.00;0.00;;;;;10.68;100.00;99979.22;6253855;22;46923;-86
2022/02/16 02:13:19;;;;;;;;;0.00;0.00;;;;;10.64;100.00;99965.00;6253820;22;45859;-87
2022/02/16 02:15:44;;;;;;;;;0.00;0.00;;;;;10.67;100.00;99964.16;6259618;22;45992;-86
2022/02/16 02:18:18;;;;;;;;;1.00;0.00;;;;;10.55;100.00;99943.75;6316066;22;45538;-87
2022/02/16 02:20:44;;;;;;;;;0.33;0.00;;;;;10.66;99.93;99954.38;6289468;22;46785;-87
2022/02/16 02:23:11;;;;;;;;;0.00;0.00;;;;;10.66;99.94;99951.72;6289293;22;45341;-87
2022/02/16 02:25:44;;;;;;;;;1.00;1.00;;;;;10.97;99.69;99987.22;6288423;22;45382;-86
2022/02/16 02:28:10;;;;;;;;;0.00;0.00;;;;;10.86;100.00;99965.03;6316639;22;45520;-86
2022/02/16 02:31:25;;;;;;;;;0.00;0.00;;;;;10.99;100.00;99967.72;6316217;22;45238;-86
2022/02/16 02:33:50;;;;;;;;;0.00;0.00;;;;;10.88;100.00;99956.16;6316914;22;45303;-86
2022/02/16 02:36:16;;;;;;;;;0.00;0.00;;;;;10.89;100.00;99951.75;6317359;22;45289;-86
2022/02/16 02:38:41;;;;;;;;;0.00;0.00;;;;;10.90;100.00;99956.19;6317588;22;45314;-86
2022/02/16 02:41:07;;;;;;;;;0.00;0.00;;;;;10.85;100.00;99942.00;6316890;22;45313;-87
2022/02/16 02:43:39;;;;;;;;;0.00;0.00;;;;;10.94;100.00;99944.66;6316333;22;45679;-86
2022/02/16 02:46:13;;;;;;;;;0.00;0.00;;;;;10.91;100.00;99934.91;6289671;22;45314;-86
2022/02/16 02:48:38;;;;;;;;;0.00;0.00;;;;;10.83;100.00;99912.75;6290313;22;45419;-86
2022/02/16 02:51:04;;;;;;;;;0.00;0.00;;;;;10.93;100.00;99922.47;6289267;22;46550;-87
2022/02/16 02:53:29;;;;;;;;;0.00;0.00;;;;;10.88;100.00;99910.06;6289025;22;45740;-87
2022/02/16 02:55:55;;;;;;;;;0.00;0.00;;;;;10.94;100.00;99921.59;6317407;22;45304;-87
2022/02/16 02:58:21;;;;;;;;;0.00;0.00;;;;;10.71;100.00;99892.34;6290199;22;45207;-87
2022/02/16 03:00:46;;;;;;;;;0.00;0.00;;;;;10.72;100.00;99879.94;6288471;22;46618;-87
2022/02/16 03:06:34;;;;;;;;;0.00;0.00;;;;;10.83;100.00;99891.47;6315740;22;45659;-87
2022/02/16 03:08:59;;;;;;;;;0.00;0.00;;;;;10.88;100.00;99884.34;6287227;22;45303;-87
2022/02/16 03:11:25;;;;;;;;;0.00;0.00;;;;;10.71;100.00;99848.91;6287139;22;46959;-87
2022/02/16 03:13:50;;;;;;;;;0.00;0.00;;;;;10.89;100.00;99867.50;6318002;22;45259;-87
2022/02/16 03:16:16;;;;;;;;;0.00;0.00;;;;;10.69;100.00;99827.63;6284259;22;44858;-87
2022/02/16 03:18:42;;;;;;;;;0.00;0.00;;;;;10.97;100.00;99880.81;6287894;22;44762;-87
2022/02/16 03:21:07;;;;;;;;;0.00;0.00;;;;;10.96;100.00;99879.91;6289250;22;45323;-87
2022/02/16 03:23:35;;;;;;;;;0.00;0.00;;;;;10.89;100.00;99864.84;6287606;22;45306;-86
2022/02/16 03:26:00;;;;;;;;;0.00;0.00;;;;;10.78;100.00;99829.38;6286572;22;45356;-87
2022/02/16 03:28:26;;;;;;;;;0.00;0.00;;;;;10.99;100.00;99860.41;6286222;22;45365;-87
2022/02/16 03:30:51;;;;;;;;;0.00;0.00;;;;;10.94;100.00;99859.50;6288322;22;45976;-87
2022/02/16 03:33:17;;;;;;;;;0.00;0.00;;;;;10.96;100.00;99845.31;6312813;22;45553;-87
2022/02/16 03:35:42;;;;;;;;;0.00;0.00;;;;;10.85;100.00;99819.66;6286768;22;45365;-87
2022/02/16 03:38:08;;;;;;;;;0.00;0.00;;;;;10.97;100.00;99846.22;6286063;22;45370;-87
2022/02/16 03:40:34;;;;;;;;;0.00;0.00;;;;;10.79;100.00;99801.91;6288534;22;46163;-86
2022/02/16 03:42:59;;;;;;;;;0.00;0.00;;;;;10.89;100.00;99816.97;6289443;22;45261;-87
2022/02/16 03:45:27;;;;;;;;;0.00;0.00;;;;;10.84;100.00;99808.09;6288550;22;45538;-87
2022/02/16 03:48:30;;;;;;;;;0.00;0.00;;;;;11.12;100.00;99845.28;6286798;22;44846;-86
2022/02/16 03:50:55;;;;;;;;;0.00;0.00;;;;;10.84;100.00;99808.09;6311118;22;47573;-86
2022/02/16 03:53:21;;;;;;;;;0.00;0.00;;;;;10.89;100.00;99811.66;6286713;22;45348;-86
2022/02/16 03:55:46;;;;;;;;;0.00;0.00;;;;;11.00;100.00;99836.44;6283313;22;45337;-87
2022/02/16 03:58:12;;;;;;;;;0.00;0.00;;;;;10.79;100.00;99793.94;6281883;22;45298;-87
2022/02/16 04:00:39;;;;;;;;;0.00;0.00;;;;;10.85;100.00;99796.59;6284532;22;45344;-87
2022/02/16 04:03:09;;;;;;;;;0.00;0.00;;;;;10.96;100.00;99797.44;6283392;22;45909;-86
2022/02/16 04:05:39;;;;;;;;;0.00;0.00;;;;;11.16;100.00;99828.44;6284381;22;44718;-87
2022/02/16 04:08:05;;;;;;;;;0.00;0.00;;;;;11.10;100.00;99812.47;6287561;22;46115;-87
2022/02/16 04:10:31;;;;;;;;;0.00;0.00;;;;;11.08;100.00;99815.13;6310768;22;47865;-87
2022/02/16 04:12:56;;;;;;;;;0.00;0.00;;;;;11.20;100.00;99819.53;6312427;22;45858;-87
2022/02/16 04:15:22;;;;;;;;;0.00;0.00;;;;;11.05;100.00;99784.97;6287041;22;45224;-87
2022/02/16 04:17:47;;;;;;;;;0.00;0.00;;;;;11.08;100.00;99787.66;6312086;22;45170;-87
2022/02/16 04:20:14;;;;;;;;;0.00;0.00;;;;;10.97;100.00;99769.06;6316341;22;47215;-87
2022/02/16 04:22:44;;;;;;;;;0.00;0.00;;;;;11.30;100.00;99817.75;6315668;22;45880;-87
2022/02/16 04:25:10;;;;;;;;;0.00;0.00;;;;;11.04;100.00;99778.78;6290855;22;45385;-87
2022/02/16 04:27:36;;;;;;;;;0.00;0.00;;;;;11.12;100.00;99786.75;6289923;22;44839;-87
2022/02/16 04:30:03;;;;;;;;;0.00;0.00;;;;;11.07;100.00;99769.91;6288990;22;46950;-87
2022/02/16 04:32:29;;;;;;;;;0.00;0.00;;;;;11.05;100.00;99769.03;6289211;22;45698;-87
2022/02/16 04:34:55;;;;;;;;;0.00;0.00;;;;;11.17;100.00;99784.97;6314619;22;45323;-87
2022/02/16 04:41:25;;;;;;;;;0.00;0.00;;;;;11.49;100.00;99814.13;6314975;22;45659;-87
2022/02/16 04:43:51;;;;;;;;;0.00;0.00;;;;;11.43;100.00;99792.81;6314373;22;45924;-87
2022/02/16 04:46:17;;;;;;;;;0.00;0.00;;;;;11.50;100.00;99799.03;6316257;22;45775;-87
2022/02/16 04:48:43;;;;;;;;;0.00;0.00;;;;;11.50;100.00;99809.66;6289403;22;45859;-87
2022/02/16 04:51:11;;;;;;;;;0.00;0.00;;;;;11.48;100.00;99787.50;6289303;22;48103;-87
2022/02/16 04:53:37;;;;;;;;;0.00;0.00;;;;;11.50;100.00;99793.69;6317544;22;45368;-87
2022/02/16 04:56:07;;;;;;;;;0.00;0.00;;;;;11.54;100.00;99795.44;6291202;22;45418;-87
2022/02/16 04:58:33;;;;;;;;;0.00;0.00;;;;;11.50;100.00;99793.69;6290840;22;45337;-87
2022/02/16 05:00:59;;;;;;;;;0.00;0.00;;;;;11.56;100.00;99804.31;6290622;22;46995;-86
2022/02/16 05:03:25;;;;;;;;;0.00;0.00;;;;;11.60;100.00;99806.94;6318926;22;45315;-87
2022/02/16 05:05:53;;;;;;;;;0.00;0.00;;;;;11.66;100.00;99806.03;6319001;22;45344;-87
2022/02/16 05:08:18;;;;;;;;;0.00;0.00;;;;;11.57;100.00;99780.34;6317505;22;45786;-87
2022/02/16 05:10:44;;;;;;;;;0.00;0.00;;;;;11.56;100.00;99786.53;6289305;22;47936;-87
2022/02/16 05:13:10;;;;;;;;;0.00;0.00;;;;;11.65;100.00;99790.06;6316822;22;45610;-87
2022/02/16 05:19:24;;;;;;;;;0.00;0.00;;;;;11.77;100.00;99819.28;6256440;22;45275;-87
2022/02/16 05:21:49;;;;;;;;;0.00;0.00;;;;;11.67;100.00;99791.81;6256506;22;45532;-87
2022/02/16 05:24:15;;;;;;;;;0.33;0.33;;;;;11.60;100.00;99785.63;6256203;22;45357;-87
2022/02/16 05:26:40;;;;;;;;;0.00;0.00;;;;;11.66;100.00;99795.38;6255016;22;45464;-87
2022/02/16 05:29:06;;;;;;;;;0.00;0.00;;;;;11.58;100.00;99759.91;6254301;22;45181;-87
2022/02/16 05:31:32;;;;;;;;;0.00;0.00;;;;;11.61;100.00;99765.22;6254020;22;46957;-87
2022/02/16 05:33:57;;;;;;;;;0.00;0.00;;;;;11.82;100.00;99790.84;6279011;22;45780;-87
2022/02/16 05:36:23;;;;;;;;;0.00;0.00;;;;;11.83;100.00;99776.63;6278181;22;45377;-88
2022/02/16 05:38:48;;;;;;;;;0.00;0.00;;;;;11.77;100.00;99774.00;6252801;22;45616;-87
2022/02/16 05:41:14;;;;;;;;;0.00;0.00;;;;;11.83;100.00;99771.28;6254116;22;46615;-87
2022/02/16 05:43:39;;;;;;;;;0.00;0.00;;;;;11.86;100.00;99767.75;6253865;22;45325;-87
2022/02/16 05:46:05;;;;;;;;;0.00;0.00;;;;;11.92;100.00;99771.28;6254606;22;45355;-87
2022/02/16 05:48:31;;;;;;;;;0.00;0.00;;;;;11.86;100.00;99765.97;6255545;22;45281;-88
2022/02/16 05:50:56;;;;;;;;;0.00;0.00;;;;;11.98;100.00;99781.00;6281269;22;48006;-88
2022/02/16 05:53:22;;;;;;;;;0.00;0.00;;;;;12.05;100.00;99784.50;6255580;22;45201;-87
2022/02/16 05:55:47;;;;;;;;;4.00;4.00;;;;;11.94;100.00;99757.94;6279976;22;45366;-87
2022/02/16 05:58:14;;;;;;;;;0.00;0.00;;;;;11.94;100.00;99748.16;6280184;22;45488;-87
2022/02/16 06:00:40;;;;;;;;;0.00;0.00;;;;;12.13;100.00;99791.53;6254487;22;45448;-87
2022/02/16 06:03:05;;;;;;;;;0.00;0.00;;;;;12.05;100.00;99772.06;6255210;22;45292;-87
2022/02/16 06:05:31;;;;;;;;;0.00;0.00;;;;;12.11;100.00;99766.69;6254566;22;45364;-87
2022/02/16 06:07:57;;;;;;;;;0.00;0.00;;;;;12.38;100.00;99818.00;6280534;22;44832;-86
2022/02/16 06:10:23;;;;;;;;;0.00;0.00;;;;;12.41;100.00;99815.31;6254804;22;46984;-87
2022/02/16 06:12:48;;;;;;;;;0.00;0.00;;;;;12.13;100.00;99759.56;6254835;22;45528;-87
2022/02/16 06:15:14;;;;;;;;;0.00;0.00;;;;;12.28;100.00;99800.31;6228927;22;45354;-87
2022/02/16 06:17:40;;;;;;;;;0.00;0.00;;;;;12.41;100.00;99810.88;6295583;22;45192;-87
2022/02/16 06:20:06;;;;;;;;;0.00;0.00;;;;;12.41;100.00;99786.88;6287430;22;45193;-88
2022/02/16 06:22:32;;;;;;;;;0.00;0.00;;;;;12.46;100.00;99784.16;6285193;22;45259;-87
2022/02/16 06:24:59;;;;;;;;;0.00;0.00;;;;;12.31;100.00;99746.97;6287177;22;44680;-87
2022/02/16 06:27:25;;;;;;;;;0.00;0.00;;;;;12.44;100.00;99769.06;6311776;22;45218;-87
2022/02/16 06:29:50;;;;;;;;;1.00;0.00;;;;;12.45;100.00;99774.41;6286619;22;45424;-87
2022/02/16 06:32:16;;;;;;;;;0.00;0.00;;;;;12.48;100.00;99776.16;6286384;22;45183;-87
2022/02/16 06:34:42;;;;;;;;;0.00;0.00;;;;;12.60;100.00;99790.28;6285972;22;45436;-87
2022/02/16 06:37:07;;;;;;;;;0.00;0.00;;;;;12.55;100.00;99788.53;6284703;22;45675;-87
2022/02/16 06:39:33;;;;;;;;;0.00;0.00;;;;;12.63;100.00;99801.81;6283857;22;46869;-87
2022/02/16 06:41:58;;;;;;;;;0.00;0.00;;;;;12.61;100.00;99789.34;6284448;22;45991;-87
2022/02/16 06:44:24;;;;;;;;;0.00;0.00;;;;;12.75;100.00;99818.56;6286086;22;45315;-88
2022/02/16 06:46:49;;;;;;;;;0.00;0.00;;;;;12.69;100.00;99807.97;6286899;22;45606;-86
2022/02/16 06:49:15;;;;;;;;;0.00;0.00;;;;;12.77;100.00;99823.91;6308260;22;48359;-85
2022/02/16 06:51:44;;;;;;;;;1.00;0.00;;;;;12.84;100.00;99819.38;6284993;22;45314;-85
2022/02/16 06:54:10;;;;;;;;;0.00;0.00;;;;;12.72;100.00;99807.91;6284351;22;45337;-85
2022/02/16 06:56:35;;;;;;;;;0.00;0.00;;;;;12.86;99.82;99845.13;6283584;22;45376;-85
2022/02/16 06:59:01;;;;;;;;;0.00;0.00;;;;;12.87;99.89;99849.59;6308449;22;46886;-85
2022/02/16 07:01:27;;;;;;;;;0.00;0.00;;;;;12.90;99.84;99841.53;6285476;22;44880;-85
2022/02/16 07:03:54;;;;;;;;;0.00;0.00;;;;;12.94;99.49;99848.63;6285948;22;45368;-87
2022/02/16 07:06:19;;;;;;;;;0.00;0.00;;;;;12.99;99.50;99849.47;6284316;22;45627;-86
2022/02/16 07:08:45;;;;;;;;;0.00;0.00;;;;;12.93;99.69;99837.97;6286337;22;45597;-84
2022/02/16 07:11:10;;;;;;;;;1.00;0.00;;;;;12.97;99.84;99851.25;6284368;22;45287;-85
2022/02/16 07:13:36;;;;;;;;;0.00;0.00;;;;;13.03;99.75;99858.34;6284082;22;45384;-85
2022/02/16 07:16:01;;;;;;;;;0.00;0.00;;;;;13.00;99.33;99856.56;6287346;22;45246;-87
2022/02/16 07:18:29;;;;;;;;;0.33;0.33;;;;;13.07;99.69;99864.50;6309264;22;45276;-85
2022/02/16 07:20:55;;;;;;;;;0.00;0.00;;;;;13.00;99.55;99845.88;6291834;22;45776;-85
2022/02/16 07:23:21;;;;;;;;;0.00;0.00;;;;;13.08;99.66;99859.16;6318190;22;45348;-84
2022/02/16 07:25:46;;;;;;;;;0.00;0.00;;;;;13.11;99.59;99861.81;6293579;22;45348;-86
2022/02/16 07:28:12;;;;;;;;;0.00;0.00;;;;;13.08;99.58;99847.59;6290482;22;46760;-84
2022/02/16 07:30:37;;;;;;;;;0.00;0.00;;;;;12.98;99.21;99821.00;6316788;22;45808;-84
2022/02/16 07:33:03;;;;;;;;;0.00;0.00;;;;;13.16;99.21;99843.94;6289197;22;45357;-84
2022/02/16 07:35:28;;;;;;;;;0.00;0.00;;;;;13.18;99.26;99841.25;6316864;22;45785;-84
2022/02/16 07:37:57;;;;;;;;;0.00;0.00;;;;;13.20;98.96;99831.44;6317423;22;45298;-85
2022/02/16 07:40:23;;;;;;;;;0.00;0.00;;;;;13.25;99.02;99842.06;6319014;22;44710;-84
2022/02/16 07:42:48;;;;;;;;;0.00;0.00;;;;;13.35;98.61;99858.03;6292156;22;45275;-84
2022/02/16 07:45:14;;;;;;;;;0.00;0.00;;;;;13.32;98.46;99842.03;6291154;22;45299;-85
2022/02/16 07:47:39;;;;;;;;;0.00;0.00;;;;;13.45;98.44;99879.25;6291885;22;47034;-85
2022/02/16 07:50:05;;;;;;;;;0.00;0.00;;;;;13.42;98.35;99868.63;6290641;22;45406;-85
2022/02/16 07:52:37;;;;;;;;;0.00;0.00;;;;;13.46;98.49;99873.91;6319671;22;45384;-86
2022/02/16 07:55:04;;;;;;;;;0.00;0.00;;;;;13.46;98.35;99867.69;6322761;22;45464;-85
2022/02/16 07:57:29;;;;;;;;;0.00;0.00;;;;;13.50;98.36;99861.41;6316789;22;46784;-85
2022/02/16 08:00:00;;;;;;;;;0.00;0.00;;;;;13.27;98.19;99825.16;6289201;22;45389;-84
2022/02/16 08:02:25;;;;;;;;;0.00;0.00;;;;;13.42;98.21;99844.59;6316568;22;45692;-85
2022/02/16 08:04:51;;;;;;;;;0.50;0.50;;;;;13.63;98.14;99875.50;6290506;22;44821;-84
2022/02/16 08:07:16;;;;;;;;;0.00;0.00;;;;;13.73;98.01;99870.00;6291912;22;46958;-84
2022/02/16 08:09:42;;;;;;;;;1.00;1.00;;;;;13.64;97.77;99831.84;6290276;22;45289;-85
2022/02/16 08:12:12;;;;;;;;;1.00;1.00;;;;;13.77;97.56;99849.47;6318837;22;45183;-85
2022/02/16 08:14:52;;;;;;;;;1.00;1.00;;;;;13.80;97.54;99828.94;6290666;22;45344;-86
2022/02/16 08:17:25;;;;;;;;;2.00;2.00;;;;;13.78;97.26;99841.44;6263079;22;46211;-86
2022/02/16 08:19:52;;;;;;;;;3.00;1.00;;;;;13.96;96.98;99876.84;6314750;22;45384;-86
2022/02/16 08:22:32;;;;;;;;;0.67;0.67;;;;;13.75;97.03;99852.16;6288499;22;44934;-87
2022/02/16 08:24:57;;;;;;;;;0.00;0.00;;;;;13.89;97.13;99876.03;6288657;22;45327;-86
2022/02/16 08:27:24;;;;;;;;;0.00;0.00;;;;;14.02;96.95;99895.47;6289522;22;46337;-86
2022/02/16 08:29:52;;;;;;;;;0.50;0.50;;;;;13.94;97.31;99884.00;6287833;22;44786;-85
2022/02/16 08:32:18;;;;;;;;;1.67;1.67;;;;;13.77;97.57;99860.16;6283365;22;45426;-85
2022/02/16 08:34:47;;;;;;;;;0.00;0.00;;;;;13.79;97.71;99853.00;6283740;22;45364;-85
2022/02/16 08:37:13;;;;;;;;;2.67;0.33;;;;;14.05;97.60;99905.25;6285338;22;45542;-84
2022/02/16 08:39:38;;;;;;;;;1.00;0.00;;;;;13.94;97.45;99859.97;6312299;22;45727;-82
2022/02/16 08:42:09;;;;;;;;;0.00;0.00;;;;;14.15;97.40;99877.47;6285806;22;45423;-83
2022/02/16 08:44:45;;;;;;;;;1.00;1.00;;;;;14.28;97.04;99894.22;6264378;22;45020;-86
2022/02/16 08:50:34;;;;;;;;;0.00;0.00;;;;;14.34;96.54;99892.34;6298603;22;44681;-85
2022/02/16 08:53:00;;;;;;;;;0.67;0.67;;;;;14.10;96.22;99850.81;6296340;22;44862;-86
2022/02/16 08:55:26;;;;;;;;;0.33;0.33;;;;;14.06;95.95;99841.06;6269282;22;44883;-84
2022/02/16 08:57:52;;;;;;;;;0.25;0.00;;;;;14.40;96.05;99899.38;6294141;22;47083;-84
2022/02/16 09:00:19;;;;;;;;;1.00;1.00;;;;;14.46;96.00;99896.63;6319798;22;45470;-84
2022/02/16 09:02:49;;;;;;;;;0.00;0.00;;;;;14.31;95.99;99856.72;6293809;22;44717;-85
2022/02/16 09:05:15;;;;;;;;;1.00;1.00;;;;;14.45;96.36;99877.94;6293901;22;45087;-83
2022/02/16 09:07:45;;;;;;;;;1.00;1.00;;;;;14.60;95.44;99888.41;6264899;22;47137;-81
2022/02/16 09:10:12;;;;;;;;;2.00;1.00;;;;;14.67;95.20;99897.22;6289592;22;45281;-84
2022/02/16 09:12:38;;;;;;;;;0.00;0.00;;;;;14.60;95.08;99878.59;6286997;22;45444;-84
2022/02/16 09:15:05;;;;;;;;;2.00;1.00;;;;;14.67;94.83;99889.22;6287965;22;44894;-85
2022/02/16 09:17:31;;;;;;;;;2.00;1.00;;;;;14.70;94.67;99907.88;6291931;22;45366;-83
2022/02/16 09:19:57;;;;;;;;;0.50;0.00;;;;;14.63;94.22;99901.75;6288484;22;45337;-82
2022/02/16 09:22:24;;;;;;;;;0.00;0.00;;;;;14.65;94.43;99910.63;6289376;22;45376;-83
2022/02/16 09:24:50;;;;;;;;;1.00;1.00;;;;;14.65;94.79;99907.97;6289907;22;45316;-85
2022/02/16 09:27:28;;;;;;;;;0.75;0.75;;;;;14.66;94.44;99911.50;6291163;22;47294;-85
2022/02/16 09:29:54;;;;;;;;;0.00;0.00;;;;;14.57;94.39;99908.06;6320978;22;44705;-86
2022/02/16 09:32:21;;;;;;;;;0.00;0.00;;;;;14.76;94.30;99943.44;6319943;22;44946;-86
2022/02/16 09:34:48;;;;;;;;;0.00;0.00;;;;;14.60;94.05;99910.72;6319772;22;45634;-86
2022/02/16 09:37:14;;;;;;;;;0.67;0.67;;;;;14.54;94.06;99908.09;6290577;22;46977;-84
2022/02/16 09:39:48;;;;;;;;;1.33;1.33;;;;;14.78;93.89;99943.44;6320533;22;45619;-87
2022/02/16 09:42:29;;;;;;;;;1.00;1.00;;;;;14.81;93.99;99943.38;6317246;22;45245;-84
2022/02/16 09:45:09;;;;;;;;;0.00;0.00;;;;;14.89;93.88;99954.84;6319466;22;45437;-85
2022/02/16 09:47:35;;;;;;;;;0.33;0.33;;;;;14.89;93.58;99944.16;6294241;22;47085;-83
2022/02/16 09:50:14;;;;;;;;;0.00;0.00;;;;;14.90;93.26;99929.84;6294079;22;45361;-85
2022/02/16 09:52:40;;;;;;;;;0.00;0.00;;;;;14.68;93.57;99883.81;6319445;22;45773;-86
2022/02/16 09:55:09;;;;;;;;;1.00;1.00;;;;;14.89;93.20;99898.63;6268310;22;45540;-85
2022/02/16 09:57:35;;;;;;;;;0.00;0.00;;;;;14.96;93.70;99923.50;6294177;22;45757;-85
2022/02/16 10:00:09;;;;;;;;;0.00;0.00;;;;;15.15;93.21;99929.44;6291814;22;44809;-83
2022/02/16 10:02:40;;;;;;;;;0.00;0.00;;;;;15.15;93.08;99916.06;6267010;22;45171;-84
2022/02/16 10:05:08;;;;;;;;;1.67;1.67;;;;;15.08;92.98;99891.16;6319966;22;45596;-86
2022/02/16 10:07:50;;;;;;;;;1.00;1.00;;;;;15.11;92.71;99884.88;6317920;22;46652;-85
2022/02/16 10:10:24;;;;;;;;;1.00;1.00;;;;;15.46;92.68;99931.56;6291437;22;44950;-83
2022/02/16 10:13:18;;;;;;;;;0.00;0.00;;;;;15.54;92.40;99937.66;6291726;22;44926;-84
2022/02/16 10:15:45;;;;;;;;;2.00;1.00;;;;;15.60;92.18;99930.38;6287812;22;45569;-83
2022/02/16 10:18:15;;;;;;;;;3.00;3.00;;;;;15.59;91.86;99928.63;6311956;22;48186;-84
2022/02/16 10:20:43;;;;;;;;;0.00;0.00;;;;;15.78;91.21;99926.47;6310209;22;44724;-82
2022/02/16 10:23:09;;;;;;;;;0.00;0.00;;;;;15.77;90.81;99910.41;6284402;22;44716;-84
2022/02/16 10:25:36;;;;;;;;;0.00;0.00;;;;;15.96;91.16;99925.22;6285035;22;45278;-82
2022/02/16 10:28:14;;;;;;;;;0.00;0.00;;;;;16.06;91.17;99933.03;6285224;22;45372;-81
2022/02/16 10:31:00;;;;;;;;;2.67;1.67;;;;;16.14;90.95;99945.38;6282822;22;45704;-82
2022/02/16 10:33:59;;;;;;;;;0.67;0.67;;;;;16.10;90.53;99945.50;6286371;22;44888;-83
2022/02/16 10:36:25;;;;;;;;;1.00;1.00;;;;;16.01;90.69;99938.50;6310655;22;45519;-85
2022/02/16 10:38:56;;;;;;;;;2.00;2.00;;;;;16.11;91.07;99950.81;6286106;22;45849;-83
2022/02/16 10:41:27;;;;;;;;;0.75;0.00;;;;;16.07;94.67;99956.28;6310606;22;45673;-84
2022/02/16 10:43:54;;;;;;;;;0.00;0.00;;;;;15.95;92.10;99935.97;6284872;22;44909;-83
2022/02/16 10:46:30;;;;;;;;;1.00;1.00;;;;;15.97;91.88;99947.53;6286107;22;45461;-83
2022/02/16 10:49:13;;;;;;;;;4.33;4.33;;;;;15.72;91.65;99918.56;6261901;22;45552;-86
2022/02/16 10:51:41;;;;;;;;;1.00;1.00;;;;;15.75;91.90;99929.22;6286478;22;44835;-87
2022/02/16 10:54:14;;;;;;;;;1.00;1.00;;;;;15.95;92.18;99968.13;6290972;22;45348;-86
2022/02/16 10:56:41;;;;;;;;;0.25;0.25;;;;;15.83;92.20;99957.66;6291237;22;45255;-86
2022/02/16 11:02:39;;;;;;;;;0.50;0.00;;;;;15.57;91.99;99924.16;6291443;22;44791;-86
2022/02/16 11:05:05;;;;;;;;;0.00;0.00;;;;;15.69;91.95;99971.31;6266189;22;44773;-85
2022/02/16 11:07:34;;;;;;;;;2.25;1.00;;;;;15.70;92.07;99975.75;6285842;22;46118;-85
2022/02/16 11:10:07;;;;;;;;;2.00;2.00;;;;;15.76;92.51;99994.44;6285582;22;46068;-86
2022/02/16 11:12:52;;;;;;;;;1.00;1.00;;;;;15.75;92.44;99993.56;6288819;22;45196;-85
2022/02/16 11:15:28;;;;;;;;;0.67;0.67;;;;;15.75;92.35;99998.94;6313488;22;44774;-85
2022/02/16 11:17:54;;;;;;;;;1.00;1.00;;;;;15.72;92.39;99977.53;6287798;22;45422;-85
2022/02/16 11:20:30;;;;;;;;;1.00;1.00;;;;;15.77;92.39;99982.78;6289864;22;46224;-86
2022/02/16 11:23:00;;;;;;;;;2.00;2.00;;;;;15.69;92.17;99980.22;6289954;22;44973;-84
2022/02/16 11:25:45;;;;;;;;;1.00;1.00;;;;;15.74;91.99;100001.63;6290786;22;45328;-85
2022/02/16 11:28:28;;;;;;;;;2.33;2.33;;;;;15.65;91.77;99981.19;6289277;22;45326;-85
2022/02/16 11:30:55;;;;;;;;;1.00;1.00;;;;;15.78;92.02;99996.19;6291525;22;45312;-85
2022/02/16 11:33:24;;;;;;;;;1.33;1.33;;;;;15.73;91.95;99965.00;6316443;22;44676;-83
2022/02/16 11:35:58;;;;;;;;;0.50;0.50;;;;;16.04;91.92;99972.41;6291006;22;44752;-85
2022/02/16 11:38:38;;;;;;;;;0.33;0.33;;;;;16.24;91.11;99975.59;6293447;22;45283;-85
2022/02/16 11:41:23;;;;;;;;;2.00;1.00;;;;;16.23;90.65;99930.00;6294753;22;46851;-85
2022/02/16 11:43:57;;;;;;;;;1.00;1.00;;;;;16.54;89.93;99968.66;6291764;22;45340;-85
2022/02/16 11:46:54;;;;;;;;;2.00;1.00;;;;;16.57;89.97;99973.94;6291431;22;45384;-86
2022/02/16 11:49:44;;;;;;;;;0.50;0.50;;;;;16.72;89.10;99986.13;6291734;22;45445;-86
2022/02/16 11:52:41;;;;;;;;;0.50;0.50;;;;;16.71;89.22;99976.31;6290420;22;45453;-86
2022/02/16 11:55:42;;;;;;;;;0.00;0.00;;;;;16.93;89.20;99975.84;6283130;22;44894;-87